Time;durP1;ratioP1;P1;durP2;ratioP2;P2;SDS_P1;SDS_P2;PMS_P1;PMS_P2;Temp;Humidity;BMP_temperature;BMP_pressure;BME280_temperature;BME280_humidity;BME280_pressure;Samples;Min_cycle;Max_cycle;Signal;HPM_P1;HPM_P2
2022/01/29 00:01:17;;;;;;;5.07;2.03;;;16.60;57.00;;;;;;5015102;28;20121;-61
2022/01/29 00:03:42;;;;;;;5.28;2.13;;;16.60;56.90;;;;;;5016349;28;20081;-61
2022/01/29 00:06:08;;;;;;;8.10;2.25;;;16.60;56.80;;;;;;5020012;28;20412;-61
2022/01/29 00:08:33;;;;;;;6.75;2.17;;;16.60;56.80;;;;;;5014843;28;20373;-61
2022/01/29 00:11:12;;;;;;;5.90;2.05;;;16.60;56.70;;;;;;5026225;28;20600;-61
2022/01/29 00:13:38;;;;;;;5.82;2.22;;;16.60;56.70;;;;;;5019044;28;20124;-61
2022/01/29 00:16:04;;;;;;;5.15;1.90;;;16.60;56.70;;;;;;5015575;28;20117;-61
2022/01/29 00:18:29;;;;;;;6.60;2.28;;;16.60;56.80;;;;;;5012362;28;20065;-61
2022/01/29 00:20:55;;;;;;;6.70;1.83;;;16.60;56.80;;;;;;5015588;28;20053;-61
2022/01/29 00:23:20;;;;;;;4.45;1.50;;;16.60;56.80;;;;;;5017176;28;20029;-61
2022/01/29 00:25:46;;;;;;;4.22;1.48;;;16.60;56.80;;;;;;5016067;28;20486;-61
2022/01/29 00:28:12;;;;;;;4.55;1.65;;;16.60;56.90;;;;;;5009434;28;20045;-61
2022/01/29 00:30:42;;;;;;;5.70;1.90;;;16.60;56.90;;;;;;5009861;28;20026;-61
2022/01/29 00:33:07;;;;;;;3.50;1.73;;;16.60;57.00;;;;;;5010014;28;20034;-61
2022/01/29 00:35:33;;;;;;;3.97;1.60;;;16.60;57.00;;;;;;5009523;28;20036;-61
2022/01/29 00:37:58;;;;;;;5.65;1.90;;;16.60;56.90;;;;;;5018739;28;20113;-61
2022/01/29 00:40:24;;;;;;;5.88;2.00;;;16.60;56.90;;;;;;5019994;28;20029;-61
2022/01/29 00:42:50;;;;;;;3.40;1.58;;;16.60;56.90;;;;;;5022863;28;20026;-62
2022/01/29 00:45:15;;;;;;;5.95;2.17;;;16.60;56.80;;;;;;5023916;28;20037;-61
2022/01/29 00:47:41;;;;;;;5.03;1.90;;;16.60;56.80;;;;;;5012560;28;20026;-61
2022/01/29 00:50:08;;;;;;;3.67;1.80;;;16.60;56.70;;;;;;5012344;28;20141;-61
2022/01/29 00:52:33;;;;;;;4.30;1.60;;;16.60;56.80;;;;;;5028701;23;20199;-65
2022/01/29 00:54:59;;;;;;;4.60;2.00;;;16.60;56.80;;;;;;5016690;28;20574;-64
2022/01/29 00:57:28;;;;;;;4.70;1.40;;;16.70;56.80;;;;;;5011821;28;20036;-64
2022/01/29 00:59:53;;;;;;;4.15;1.65;;;16.70;56.80;;;;;;5005251;28;20673;-65
2022/01/29 01:02:19;;;;;;;4.70;1.80;;;16.60;56.80;;;;;;5014217;28;20037;-64
2022/01/29 01:04:44;;;;;;;6.30;1.95;;;16.70;56.80;;;;;;5020341;28;22852;-63
2022/01/29 01:07:10;;;;;;;5.25;2.47;;;16.60;56.80;;;;;;5017687;28;20033;-65
2022/01/29 01:09:36;;;;;;;4.28;1.45;;;16.60;56.80;;;;;;5010632;28;20033;-64
2022/01/29 01:12:01;;;;;;;4.50;1.95;;;16.70;56.80;;;;;;5012878;28;20164;-64
2022/01/29 01:14:27;;;;;;;4.70;1.63;;;16.60;56.80;;;;;;5015660;28;20171;-63
2022/01/29 01:16:52;;;;;;;6.85;1.73;;;16.70;56.80;;;;;;5014659;28;20489;-66
2022/01/29 01:19:18;;;;;;;8.18;2.10;;;16.70;56.70;;;;;;5024492;28;20030;-65
2022/01/29 01:21:43;;;;;;;4.30;1.65;;;16.70;56.70;;;;;;5018222;28;20179;-65
2022/01/29 01:24:09;;;;;;;6.45;1.83;;;16.70;56.70;;;;;;5016752;28;20053;-64
2022/01/29 01:26:34;;;;;;;4.90;1.67;;;16.70;56.70;;;;;;5009220;28;20042;-65
2022/01/29 01:29:00;;;;;;;3.95;1.85;;;16.70;56.80;;;;;;5022762;28;20040;-65
2022/01/29 01:31:25;;;;;;;4.25;1.45;;;16.70;56.80;;;;;;5010780;28;20045;-63
2022/01/29 01:33:51;;;;;;;4.68;1.60;;;16.70;56.80;;;;;;5003806;28;20029;-64
2022/01/29 01:36:20;;;;;;;3.88;1.67;;;16.70;56.80;;;;;;5018773;28;20075;-63
2022/01/29 01:38:53;;;;;;;7.30;1.75;;;16.70;56.80;;;;;;5015778;28;20044;-65
2022/01/29 01:41:24;;;;;;;3.08;1.52;;;16.70;56.90;;;;;;5000976;28;20036;-62
2022/01/29 01:43:49;;;;;;;4.43;1.70;;;16.70;56.80;;;;;;5013368;28;20121;-64
2022/01/29 01:46:15;;;;;;;3.45;1.90;;;16.70;56.80;;;;;;5015188;28;20132;-64
2022/01/29 01:48:40;;;;;;;5.47;1.88;;;16.70;56.70;;;;;;5012637;28;20415;-63
2022/01/29 01:51:06;;;;;;;4.32;1.63;;;16.70;56.70;;;;;;5013746;28;20045;-64
2022/01/29 01:53:32;;;;;;;4.30;1.52;;;16.70;56.80;;;;;;5010432;28;20673;-63
2022/01/29 01:55:58;;;;;;;5.50;1.55;;;16.70;56.70;;;;;;5012222;28;20041;-63
2022/01/29 01:58:23;;;;;;;5.07;1.80;;;16.70;56.70;;;;;;5012751;28;20044;-64
2022/01/29 02:00:49;;;;;;;4.18;1.48;;;16.70;56.70;;;;;;5011402;28;20038;-62
2022/01/29 02:03:14;;;;;;;4.32;1.85;;;16.70;56.70;;;;;;5014098;28;20671;-65
2022/01/29 02:05:40;;;;;;;2.53;1.40;;;16.70;56.60;;;;;;5010032;28;20420;-64
2022/01/29 02:08:06;;;;;;;4.45;1.85;;;16.70;56.60;;;;;;5016878;28;20547;-64
2022/01/29 02:10:31;;;;;;;3.28;1.98;;;16.70;56.60;;;;;;5006847;28;20041;-64
2022/01/29 02:13:00;;;;;;;4.15;1.52;;;16.70;56.40;;;;;;5010973;28;20041;-64
2022/01/29 02:15:26;;;;;;;2.83;1.15;;;16.70;56.40;;;;;;5016106;28;20515;-63
2022/01/29 02:17:52;;;;;;;5.72;1.60;;;16.70;56.40;;;;;;5012713;28;20033;-67
2022/01/29 02:20:23;;;;;;;3.65;1.38;;;16.70;56.30;;;;;;5008176;28;20088;-66
2022/01/29 02:22:48;;;;;;;4.10;1.55;;;16.70;56.20;;;;;;5015272;28;20025;-65
2022/01/29 02:25:28;;;;;;;4.03;1.60;;;16.70;56.20;;;;;;5021168;28;20108;-65
2022/01/29 02:27:53;;;;;;;4.15;1.48;;;16.70;56.20;;;;;;5013553;28;20594;-63
2022/01/29 02:30:19;;;;;;;4.22;1.60;;;16.70;56.10;;;;;;5013374;28;20036;-64
2022/01/29 02:32:45;;;;;;;5.88;1.40;;;16.70;56.00;;;;;;5008308;28;20647;-64
2022/01/29 02:35:10;;;;;;;3.75;1.35;;;16.70;56.00;;;;;;5010438;28;20704;-64
2022/01/29 02:37:36;;;;;;;3.80;1.38;;;16.70;56.00;;;;;;5003443;28;20113;-62
2022/01/29 02:40:02;;;;;;;3.58;1.33;;;16.60;56.00;;;;;;5018888;28;20044;-63
2022/01/29 02:42:27;;;;;;;4.25;1.50;;;16.70;55.90;;;;;;5009407;28;20108;-63
2022/01/29 02:44:53;;;;;;;5.97;1.52;;;16.60;55.80;;;;;;5004973;28;20128;-64
2022/01/29 02:47:31;;;;;;;4.20;1.90;;;16.70;55.90;;;;;;5014777;28;20056;-64
2022/01/29 02:49:57;;;;;;;6.65;1.60;;;16.60;55.80;;;;;;5005786;28;20032;-65
2022/01/29 02:52:22;;;;;;;4.18;1.50;;;16.70;55.80;;;;;;5014868;28;20413;-64
2022/01/29 02:54:48;;;;;;;5.32;1.50;;;16.60;55.70;;;;;;5009351;28;20026;-64
2022/01/29 02:57:14;;;;;;;4.57;1.60;;;16.60;55.70;;;;;;5012252;28;20040;-65
2022/01/29 02:59:39;;;;;;;4.00;1.50;;;16.70;55.70;;;;;;5012967;28;20493;-64
2022/01/29 03:02:05;;;;;;;2.85;1.30;;;16.60;55.60;;;;;;5007043;28;20033;-64
2022/01/29 03:04:30;;;;;;;4.95;1.90;;;16.60;55.60;;;;;;5005802;28;20025;-63
2022/01/29 03:06:56;;;;;;;7.10;1.65;;;16.60;55.60;;;;;;5022161;28;20100;-64
2022/01/29 03:09:21;;;;;;;5.20;1.48;;;16.60;55.60;;;;;;5003852;28;20678;-64
2022/01/29 03:11:46;;;;;;;2.95;1.20;;;16.60;55.60;;;;;;5015415;28;20033;-63
2022/01/29 03:14:12;;;;;;;5.90;1.65;;;16.60;55.50;;;;;;5009406;28;20032;-63
2022/01/29 03:16:37;;;;;;;2.83;1.17;;;16.60;55.50;;;;;;5013225;28;20548;-65
2022/01/29 03:19:03;;;;;;;3.50;1.27;;;16.60;55.50;;;;;;5015183;28;20025;-63
2022/01/29 03:21:28;;;;;;;5.03;1.40;;;16.60;55.40;;;;;;5008829;28;20022;-63
2022/01/29 03:23:54;;;;;;;4.47;1.60;;;16.60;55.40;;;;;;5022058;28;20524;-64
2022/01/29 03:26:20;;;;;;;4.43;1.58;;;16.60;55.40;;;;;;5008001;28;20030;-64
2022/01/29 03:28:45;;;;;;;3.72;1.10;;;16.60;55.40;;;;;;5019588;28;20352;-63
2022/01/29 03:31:11;;;;;;;5.40;1.63;;;16.60;55.40;;;;;;5021295;28;20041;-65
2022/01/29 03:33:36;;;;;;;3.38;1.23;;;16.60;55.30;;;;;;5021711;28;20492;-65
2022/01/29 03:36:02;;;;;;;4.32;1.67;;;16.60;55.30;;;;;;5010525;28;20034;-63
2022/01/29 03:38:27;;;;;;;2.42;1.30;;;16.60;55.30;;;;;;5006394;28;20033;-63
2022/01/29 03:40:55;;;;;;;4.38;1.70;;;16.60;55.30;;;;;;5025733;28;20025;-62
2022/01/29 03:43:32;;;;;;;3.35;1.20;;;16.60;55.40;;;;;;5022652;28;20022;-60
2022/01/29 03:45:57;;;;;;;4.57;1.60;;;16.60;55.40;;;;;;5017242;28;20033;-63
2022/01/29 03:48:23;;;;;;;5.00;1.48;;;16.60;55.50;;;;;;5015304;28;20040;-63
2022/01/29 03:50:48;;;;;;;3.80;1.50;;;16.60;55.50;;;;;;5018509;28;20047;-63
2022/01/29 03:53:14;;;;;;;3.83;1.30;;;16.60;55.60;;;;;;5017530;28;20065;-61
2022/01/29 03:55:39;;;;;;;4.25;1.30;;;16.60;55.60;;;;;;5014936;28;20112;-63
2022/01/29 03:58:05;;;;;;;3.80;1.55;;;16.60;55.60;;;;;;5023936;28;20025;-63
2022/01/29 04:00:31;;;;;;;4.00;1.30;;;16.60;55.70;;;;;;5017603;28;20080;-63
2022/01/29 04:02:56;;;;;;;4.45;1.55;;;16.60;55.80;;;;;;5011631;28;20510;-63
2022/01/29 04:05:22;;;;;;;3.70;1.40;;;16.60;55.80;;;;;;5019318;28;20048;-64
2022/01/29 04:07:47;;;;;;;3.20;1.65;;;16.60;55.80;;;;;;5008919;28;20121;-62
2022/01/29 04:10:13;;;;;;;2.60;1.25;;;16.60;55.80;;;;;;5023572;28;20128;-62
2022/01/29 04:12:44;;;;;;;3.20;1.50;;;16.60;55.80;;;;;;5012305;28;20018;-63
2022/01/29 04:15:10;;;;;;;4.50;1.23;;;16.60;55.80;;;;;;5018099;28;20567;-63
2022/01/29 04:17:35;;;;;;;3.53;1.15;;;16.60;55.80;;;;;;5012687;28;20026;-62
2022/01/29 04:20:03;;;;;;;4.63;1.30;;;16.60;55.80;;;;;;5022587;28;20037;-63
2022/01/29 04:22:28;;;;;;;4.97;1.17;;;16.60;55.90;;;;;;5022376;28;20161;-63
2022/01/29 04:24:54;;;;;;;3.50;1.48;;;16.60;55.90;;;;;;5014605;28;20031;-63
2022/01/29 04:27:23;;;;;;;3.78;1.48;;;16.60;55.90;;;;;;5016465;28;20366;-64
2022/01/29 04:29:55;;;;;;;2.58;1.38;;;16.60;55.90;;;;;;5021018;28;20025;-63
2022/01/29 04:32:29;;;;;;;2.90;1.33;;;16.60;55.90;;;;;;5011178;28;20029;-63
2022/01/29 04:34:55;;;;;;;4.43;1.33;;;16.60;56.00;;;;;;5016606;28;20484;-65
2022/01/29 04:37:21;;;;;;;2.15;1.15;;;16.60;56.00;;;;;;5016590;28;20118;-62
2022/01/29 04:39:46;;;;;;;4.18;1.30;;;16.60;56.00;;;;;;5014122;28;20032;-62
2022/01/29 04:42:12;;;;;;;6.25;1.50;;;16.60;56.00;;;;;;5017819;28;20627;-63
2022/01/29 04:44:37;;;;;;;3.00;1.42;;;16.60;56.00;;;;;;5007790;28;20685;-62
2022/01/29 04:47:03;;;;;;;4.60;1.60;;;16.60;56.00;;;;;;5010777;28;20033;-62
2022/01/29 04:49:28;;;;;;;3.03;1.50;;;16.60;56.00;;;;;;5014862;28;20117;-64
2022/01/29 04:51:54;;;;;;;2.00;1.10;;;16.60;56.10;;;;;;5019998;28;20105;-63
2022/01/29 04:54:19;;;;;;;5.32;1.73;;;16.60;56.10;;;;;;5015265;28;20026;-64
2022/01/29 04:56:45;;;;;;;5.45;1.48;;;16.60;56.00;;;;;;5012242;28;20707;-63
2022/01/29 04:59:10;;;;;;;2.92;1.20;;;16.60;56.10;;;;;;5014986;28;20038;-64
2022/01/29 05:01:36;;;;;;;2.20;1.15;;;16.60;56.10;;;;;;5010749;28;20030;-64
2022/01/29 05:04:01;;;;;;;2.72;1.23;;;16.60;56.00;;;;;;5009522;28;20658;-62
2022/01/29 05:06:26;;;;;;;3.50;1.52;;;16.60;56.00;;;;;;5021363;28;20029;-62
2022/01/29 05:08:52;;;;;;;3.75;1.48;;;16.60;56.00;;;;;;5019413;28;20045;-62
2022/01/29 05:11:18;;;;;;;2.38;1.38;;;16.60;56.00;;;;;;5014808;28;20524;-62
2022/01/29 05:13:44;;;;;;;2.08;1.45;;;16.60;56.00;;;;;;5010281;28;20104;-63
2022/01/29 05:27:03;;;;;;;4.25;1.63;;;16.60;55.80;;;;;;5010364;28;20096;-64
2022/01/29 05:29:31;;;;;;;3.20;1.33;;;16.60;55.80;;;;;;5014333;28;20302;-62
2022/01/29 05:32:01;;;;;;;2.80;1.27;;;16.60;55.70;;;;;;5019632;28;20113;-63
2022/01/29 05:34:26;;;;;;;3.65;1.52;;;16.70;55.70;;;;;;4998483;28;20721;-62
2022/01/29 05:36:53;;;;;;;2.63;1.60;;;16.60;55.60;;;;;;5009209;28;20034;-63
2022/01/29 05:39:19;;;;;;;3.28;1.45;;;16.60;55.60;;;;;;5014456;28;20032;-62
2022/01/29 05:41:44;;;;;;;2.97;1.20;;;16.60;55.60;;;;;;5011332;28;20030;-62
2022/01/29 05:44:10;;;;;;;3.70;1.42;;;16.60;55.60;;;;;;5021295;28;20543;-63
2022/01/29 05:46:35;;;;;;;3.90;1.67;;;16.60;55.60;;;;;;5009746;28;20104;-64
2022/01/29 05:49:01;;;;;;;4.78;2.22;;;16.60;55.50;;;;;;5026748;28;20029;-62
2022/01/29 05:51:29;;;;;;;3.03;1.90;;;16.60;55.40;;;;;;5022077;28;20141;-63
2022/01/29 05:53:57;;;;;;;4.07;1.60;;;16.60;55.40;;;;;;5015887;28;20043;-63
2022/01/29 05:56:22;;;;;;;3.50;1.48;;;16.60;55.40;;;;;;5018746;28;20030;-63
2022/01/29 05:58:48;;;;;;;2.03;1.40;;;16.60;55.30;;;;;;5006593;28;20031;-63
2022/01/29 06:01:13;;;;;;;2.92;1.60;;;16.60;55.30;;;;;;5015808;28;20053;-63
2022/01/29 06:03:39;;;;;;;2.72;1.33;;;16.60;55.20;;;;;;5008423;28;20105;-62
2022/01/29 06:06:04;;;;;;;2.38;1.30;;;16.60;55.20;;;;;;5015243;28;20044;-63
2022/01/29 06:08:30;;;;;;;3.33;1.73;;;16.60;55.40;;;;;;5016829;28;20403;-62
2022/01/29 06:10:55;;;;;;;3.20;1.15;;;16.60;55.40;;;;;;5008299;28;20041;-63
2022/01/29 06:13:21;;;;;;;3.28;1.85;;;16.60;55.40;;;;;;5019406;28;20044;-61
2022/01/29 06:15:48;;;;;;;2.58;1.45;;;16.60;55.40;;;;;;5022729;28;20091;-61
2022/01/29 06:18:19;;;;;;;2.35;1.48;;;16.60;55.40;;;;;;5010976;28;20436;-61
2022/01/29 06:20:46;;;;;;;1.58;1.45;;;16.60;55.30;;;;;;5012058;28;20160;-61
2022/01/29 06:23:12;;;;;;;1.90;1.30;;;16.60;55.20;;;;;;5005430;28;20041;-62
2022/01/29 06:25:38;;;;;;;4.88;1.88;;;16.60;55.20;;;;;;5008590;28;20029;-58
2022/01/29 06:28:03;;;;;;;2.85;1.65;;;16.60;55.10;;;;;;5016624;28;20040;-61
2022/01/29 06:30:29;;;;;;;5.20;1.77;;;16.60;55.20;;;;;;5008571;28;20485;-63
2022/01/29 06:32:55;;;;;;;3.47;1.75;;;16.60;55.10;;;;;;5006553;28;20096;-63
2022/01/29 06:35:20;;;;;;;2.25;1.73;;;16.60;55.10;;;;;;5024946;28;20221;-61
2022/01/29 06:37:46;;;;;;;1.58;1.40;;;16.60;55.00;;;;;;5012834;28;20026;-61
2022/01/29 06:40:11;;;;;;;1.70;1.30;;;16.60;55.00;;;;;;5004083;28;20033;-63
2022/01/29 06:42:37;;;;;;;1.77;1.50;;;16.60;55.00;;;;;;5007473;28;20025;-61
2022/01/29 06:45:03;;;;;;;3.10;2.10;;;16.60;54.90;;;;;;5008377;28;20077;-62
2022/01/29 06:47:29;;;;;;;3.65;1.70;;;16.60;54.90;;;;;;5011724;28;20610;-63
2022/01/29 06:49:54;;;;;;;2.25;1.80;;;16.60;54.90;;;;;;5008524;28;20026;-62
2022/01/29 06:52:20;;;;;;;2.22;1.77;;;16.60;54.90;;;;;;5011128;28;20030;-62
2022/01/29 06:54:45;;;;;;;2.40;1.70;;;16.60;54.90;;;;;;5019906;28;20029;-60
2022/01/29 06:57:11;;;;;;;3.13;1.63;;;16.60;54.90;;;;;;5015333;28;20030;-61
2022/01/29 06:59:36;;;;;;;2.28;1.77;;;16.60;54.90;;;;;;5015653;28;20432;-62
2022/01/29 07:02:02;;;;;;;2.35;1.60;;;16.60;54.90;;;;;;5019923;28;20033;-63
2022/01/29 07:04:27;;;;;;;3.00;1.60;;;16.60;54.80;;;;;;5018759;28;20114;-61
2022/01/29 07:06:53;;;;;;;4.13;1.60;;;16.60;54.70;;;;;;5023430;28;20061;-59
2022/01/29 07:09:18;;;;;;;2.45;1.83;;;16.60;54.70;;;;;;5017141;28;20040;-60
2022/01/29 07:11:45;;;;;;;3.72;2.05;;;16.60;54.70;;;;;;5012642;28;20527;-61
2022/01/29 07:14:16;;;;;;;3.78;1.55;;;16.60;54.90;;;;;;5015432;28;20112;-63
2022/01/29 07:16:43;;;;;;;5.75;1.92;;;16.60;54.90;;;;;;5005278;28;20092;-61
2022/01/29 07:19:08;;;;;;;2.90;1.90;;;16.60;54.90;;;;;;5020507;28;20212;-61
2022/01/29 07:21:34;;;;;;;2.55;1.80;;;16.60;54.90;;;;;;5016701;28;20547;-60
2022/01/29 07:23:59;;;;;;;4.22;1.60;;;16.60;54.90;;;;;;5011300;28;20056;-62
2022/01/29 07:26:25;;;;;;;4.40;1.70;;;16.60;54.90;;;;;;5023623;28;20378;-62
2022/01/29 07:28:50;;;;;;;2.80;1.50;;;16.50;55.00;;;;;;5023765;28;20031;-62
2022/01/29 07:31:16;;;;;;;3.60;1.58;;;16.60;55.30;;;;;;5014323;28;20080;-58
2022/01/29 07:33:41;;;;;;;3.63;1.83;;;16.60;55.80;;;;;;5018948;28;20522;-62
2022/01/29 07:36:07;;;;;;;5.53;1.52;;;16.50;55.80;;;;;;5016799;28;20087;-62
2022/01/29 07:38:32;;;;;;;4.55;1.80;;;16.50;55.90;;;;;;5016721;28;20034;-60
2022/01/29 07:40:58;;;;;;;3.90;1.52;;;16.50;56.00;;;;;;5017720;28;20030;-62
2022/01/29 07:43:23;;;;;;;4.65;1.98;;;16.50;56.00;;;;;;5011377;28;20038;-62
2022/01/29 07:45:49;;;;;;;3.15;1.58;;;16.50;56.10;;;;;;5016017;28;20034;-61
2022/01/29 07:48:14;;;;;;;10.95;1.80;;;16.50;56.10;;;;;;5014992;28;20030;-59
2022/01/29 07:50:40;;;;;;;3.58;1.80;;;16.50;56.30;;;;;;5009649;28;20045;-63
2022/01/29 07:53:05;;;;;;;5.57;1.90;;;16.50;56.20;;;;;;5004720;28;20038;-63
2022/01/29 07:55:31;;;;;;;2.22;1.45;;;16.50;56.20;;;;;;5004707;28;20498;-62
2022/01/29 07:57:57;;;;;;;6.00;1.67;;;16.50;56.40;;;;;;5019867;28;20175;-65
2022/01/29 08:00:23;;;;;;;6.88;1.70;;;16.50;56.40;;;;;;5019113;28;20064;-61
2022/01/29 08:02:48;;;;;;;6.15;1.88;;;16.50;56.40;;;;;;5011407;28;20028;-66
2022/01/29 08:05:14;;;;;;;4.82;2.50;;;16.50;56.40;;;;;;5010811;28;20029;-64
2022/01/29 08:07:39;;;;;;;2.78;1.98;;;16.50;56.40;;;;;;5014285;28;20381;-62
2022/01/29 08:10:05;;;;;;;2.65;1.70;;;16.60;56.50;;;;;;5012371;28;20034;-63
2022/01/29 08:12:31;;;;;;;4.75;2.08;;;16.60;56.40;;;;;;5003794;28;20766;-57
2022/01/29 08:14:57;;;;;;;4.32;1.67;;;16.60;56.40;;;;;;5015900;28;20525;-63
2022/01/29 08:17:22;;;;;;;3.60;1.83;;;16.60;56.40;;;;;;5011276;28;20036;-60
2022/01/29 08:19:49;;;;;;;6.47;2.40;;;16.60;56.40;;;;;;5014648;28;20579;-61
2022/01/29 08:22:15;;;;;;;3.78;2.13;;;16.60;56.40;;;;;;5018215;28;20061;-63
2022/01/29 08:24:41;;;;;;;4.75;1.63;;;16.60;56.40;;;;;;5006413;28;20045;-63
2022/01/29 08:27:06;;;;;;;6.53;2.00;;;16.60;57.00;;;;;;5023383;28;20600;-64
2022/01/29 08:29:32;;;;;;;5.82;2.38;;;16.60;56.40;;;;;;5023624;28;20048;-59
2022/01/29 08:31:57;;;;;;;3.83;2.22;;;16.50;56.40;;;;;;5016604;28;20032;-62
2022/01/29 08:34:23;;;;;;;5.63;1.88;;;16.50;56.40;;;;;;5023262;28;20026;-61
2022/01/29 08:36:49;;;;;;;4.07;1.75;;;16.50;56.40;;;;;;4999622;23;21848;-60
2022/01/29 08:39:14;;;;;;;2.75;2.10;;;16.60;56.40;;;;;;5012657;28;20052;-61
2022/01/29 08:41:40;;;;;;;4.53;1.75;;;16.60;56.40;;;;;;5005739;28;20026;-60
2022/01/29 08:44:05;;;;;;;2.63;1.60;;;16.60;57.00;;;;;;5019567;28;20422;-62
2022/01/29 08:46:31;;;;;;;6.90;1.77;;;16.60;56.40;;;;;;5014005;28;20052;-60
2022/01/29 08:48:56;;;;;;;3.25;2.03;;;16.60;56.40;;;;;;5009581;28;20037;-58
2022/01/29 08:51:22;;;;;;;3.35;1.90;;;16.60;57.10;;;;;;5014684;28;20037;-57
2022/01/29 08:53:48;;;;;;;3.35;1.95;;;16.60;56.40;;;;;;5008700;28;20130;-59
2022/01/29 08:56:15;;;;;;;11.50;4.72;;;16.60;56.50;;;;;;5017547;28;20038;-58
2022/01/29 08:58:41;;;;;;;16.00;6.28;;;16.60;57.80;;;;;;5018146;28;20037;-62
2022/01/29 09:01:08;;;;;;;20.77;7.05;;;16.60;58.60;;;;;;5010610;28;20037;-61
2022/01/29 09:03:33;;;;;;;14.65;6.25;;;16.60;59.10;;;;;;5013094;28;20033;-59
2022/01/29 09:06:00;;;;;;;20.50;6.60;;;16.60;59.00;;;;;;5009428;28;20423;-57
2022/01/29 09:08:26;;;;;;;15.10;7.38;;;16.60;58.60;;;;;;5012993;28;20038;-55
2022/01/29 09:10:56;;;;;;;22.02;7.32;;;16.60;58.50;;;;;;5016485;28;20026;-56
2022/01/29 09:13:22;;;;;;;12.27;6.05;;;16.60;58.40;;;;;;5013083;28;21526;-62
2022/01/29 09:15:47;;;;;;;15.20;6.70;;;16.60;58.20;;;;;;5000295;28;20052;-61
2022/01/29 09:18:13;;;;;;;15.27;6.97;;;16.60;58.20;;;;;;5021654;28;20037;-59
2022/01/29 09:20:38;;;;;;;16.00;6.32;;;16.60;58.00;;;;;;5010714;28;20167;-57
2022/01/29 09:23:04;;;;;;;15.00;7.05;;;16.60;57.90;;;;;;5017104;28;20518;-60
2022/01/29 09:25:30;;;;;;;28.65;12.82;;;16.60;57.90;;;;;;5011818;28;20416;-61
2022/01/29 09:27:55;;;;;;;33.08;13.10;;;16.60;58.90;;;;;;5018399;28;20037;-59
2022/01/29 09:30:21;;;;;;;24.05;11.88;;;16.60;58.90;;;;;;5005304;28;20030;-60
2022/01/29 09:32:46;;;;;;;28.00;12.23;;;16.60;58.60;;;;;;5017896;28;20831;-57
2022/01/29 09:35:12;;;;;;;25.55;12.02;;;16.60;58.80;;;;;;5011385;28;20030;-58
2022/01/29 09:37:37;;;;;;;23.55;10.90;;;16.60;58.70;;;;;;5003462;28;20042;-56
2022/01/29 09:40:03;;;;;;;23.08;10.20;;;16.60;58.30;;;;;;5010988;28;20082;-59
2022/01/29 09:42:29;;;;;;;20.08;9.88;;;16.60;58.10;;;;;;5007841;28;20250;-57
2022/01/29 09:44:54;;;;;;;19.38;9.75;;;16.60;57.90;;;;;;5010477;28;20029;-60
2022/01/29 09:47:21;;;;;;;20.42;9.10;;;16.70;57.80;;;;;;4999470;28;20109;-56
2022/01/29 09:49:47;;;;;;;19.08;9.32;;;16.70;57.60;;;;;;5020005;28;20112;-60
2022/01/29 09:52:12;;;;;;;22.75;9.63;;;16.60;57.50;;;;;;5007722;28;20048;-61
2022/01/29 09:54:38;;;;;;;27.90;12.35;;;16.70;58.00;;;;;;5017268;28;20022;-60
2022/01/29 09:57:04;;;;;;;34.42;12.73;;;16.70;59.10;;;;;;5006472;28;20029;-58
2022/01/29 09:59:29;;;;;;;27.35;12.40;;;16.70;59.20;;;;;;5010184;28;20026;-58
2022/01/29 10:01:55;;;;;;;23.05;11.43;;;16.70;59.40;;;;;;5012482;28;20040;-60
2022/01/29 10:04:21;;;;;;;25.25;11.15;;;16.70;59.30;;;;;;5012351;28;20026;-61
2022/01/29 10:07:07;;;;;;;22.25;9.98;;;16.70;59.20;;;;;;5020017;28;20163;-59
2022/01/29 10:09:33;;;;;;;26.45;10.35;;;16.70;58.90;;;;;;5007351;28;20546;-61
2022/01/29 10:12:27;;;;;;;15.93;8.82;;;16.70;59.00;;;;;;5010940;28;20039;-56
2022/01/29 10:15:00;;;;;;;21.88;8.52;;;16.70;58.90;;;;;;5017481;28;20057;-52
2022/01/29 10:17:45;;;;;;;19.50;8.23;;;16.70;59.10;;;;;;5016023;28;20249;-56
2022/01/29 10:20:11;;;;;;;21.60;7.95;;;16.70;59.10;;;;;;5010852;28;20577;-60
2022/01/29 10:22:37;;;;;;;19.95;8.43;;;16.70;59.30;;;;;;5009409;28;20034;-56
2022/01/29 10:25:16;;;;;;;17.20;7.05;;;16.70;59.60;;;;;;5005853;28;20045;-59
2022/01/29 10:28:07;;;;;;;18.02;7.82;;;16.70;59.60;;;;;;5015601;28;20563;-59
2022/01/29 10:30:34;;;;;;;19.05;7.22;;;16.70;59.60;;;;;;5004835;28;20037;-57
2022/01/29 10:33:25;;;;;;;13.25;6.70;;;16.70;59.70;;;;;;5011095;28;20125;-60
2022/01/29 10:36:14;;;;;;;15.48;6.43;;;16.70;59.80;;;;;;5006568;28;20033;-61
2022/01/29 10:38:40;;;;;;;13.00;5.65;;;16.70;59.80;;;;;;4987255;28;20037;-60
2022/01/29 10:41:13;;;;;;;13.50;6.38;;;16.80;59.80;;;;;;5007855;28;20052;-57
2022/01/29 10:44:10;;;;;;;11.88;6.00;;;16.70;59.90;;;;;;5008937;28;20029;-59
2022/01/29 10:46:46;;;;;;;10.85;5.70;;;16.70;60.20;;;;;;5011271;28;20063;-59
2022/01/29 10:49:24;;;;;;;10.95;6.20;;;16.70;60.30;;;;;;4998549;28;20069;-60
2022/01/29 10:52:07;;;;;;;12.18;5.65;;;16.70;60.60;;;;;;5005367;28;20137;-59
2022/01/29 10:54:40;;;;;;;11.82;5.72;;;16.70;60.60;;;;;;5006935;28;20047;-60
2022/01/29 10:57:10;;;;;;;11.88;5.80;;;16.70;60.50;;;;;;5012109;28;20034;-61
2022/01/29 10:59:49;;;;;;;9.77;4.95;;;16.70;60.60;;;;;;5009552;28;20033;-60
2022/01/29 11:02:15;;;;;;;11.30;5.22;;;16.70;60.50;;;;;;5009467;28;20418;-60
2022/01/29 11:04:41;;;;;;;8.98;5.13;;;16.60;60.50;;;;;;5006031;28;20126;-58
2022/01/29 11:07:13;;;;;;;9.30;4.70;;;16.70;60.50;;;;;;5014123;28;20145;-58
2022/01/29 11:09:41;;;;;;;10.65;5.30;;;16.70;60.40;;;;;;5014151;28;20483;-61
2022/01/29 11:12:07;;;;;;;14.10;5.43;;;16.70;60.60;;;;;;5009165;28;20034;-58
2022/01/29 11:14:33;;;;;;;8.70;4.53;;;16.70;60.60;;;;;;5019391;28;20022;-58
2022/01/29 11:16:59;;;;;;;8.57;4.63;;;16.70;60.40;;;;;;5012909;28;20072;-58
2022/01/29 11:19:24;;;;;;;10.32;4.28;;;16.70;60.30;;;;;;5008381;28;20029;-59
2022/01/29 11:21:51;;;;;;;10.27;4.55;;;16.70;60.40;;;;;;5015871;28;20026;-57
2022/01/29 11:24:18;;;;;;;8.48;4.35;;;16.70;60.40;;;;;;5000934;28;20407;-58
2022/01/29 11:26:45;;;;;;;12.23;4.50;;;16.70;60.10;;;;;;5007277;28;20457;-61
2022/01/29 11:29:30;;;;;;;7.93;3.92;;;16.70;59.80;;;;;;4990556;28;20025;-59
2022/01/29 11:32:20;;;;;;;9.98;3.83;;;16.80;59.80;;;;;;5017319;28;20445;-60
2022/01/29 11:35:08;;;;;;;8.90;3.47;;;16.80;60.30;;;;;;5004893;28;20108;-58
2022/01/29 11:37:40;;;;;;;9.77;3.63;;;16.80;60.20;;;;;;5012265;28;20064;-57
2022/01/29 11:40:19;;;;;;;11.18;3.90;;;16.70;60.30;;;;;;5012170;28;20026;-57
2022/01/29 11:42:52;;;;;;;8.82;3.15;;;16.70;60.20;;;;;;5019276;28;20025;-57
2022/01/29 11:45:29;;;;;;;7.95;3.40;;;16.70;60.10;;;;;;5018154;28;20034;-58
2022/01/29 11:47:55;;;;;;;4.82;3.20;;;16.70;60.00;;;;;;5016117;28;20394;-57
2022/01/29 11:50:29;;;;;;;5.82;3.22;;;16.70;59.90;;;;;;5014790;28;20022;-60
2022/01/29 11:52:59;;;;;;;6.25;3.20;;;16.70;59.80;;;;;;5018428;28;20022;-59
2022/01/29 11:55:34;;;;;;;5.30;2.60;;;16.70;59.60;;;;;;5013072;28;20686;-60
2022/01/29 11:58:21;;;;;;;5.53;2.97;;;16.70;59.40;;;;;;5017376;28;20088;-60
2022/01/29 12:00:58;;;;;;;4.88;2.70;;;16.70;59.40;;;;;;5013165;28;20038;-61
2022/01/29 12:03:33;;;;;;;5.88;3.13;;;16.70;59.40;;;;;;5007970;28;20034;-61
2022/01/29 12:06:31;;;;;;;5.55;2.90;;;16.80;59.00;;;;;;5018087;28;20202;-60
2022/01/29 12:09:12;;;;;;;4.95;2.65;;;16.80;58.80;;;;;;5011930;28;20022;-60
2022/01/29 12:11:39;;;;;;;10.77;2.85;;;16.80;58.60;;;;;;5017660;28;20034;-59
2022/01/29 12:14:14;;;;;;;4.72;2.95;;;16.70;58.50;;;;;;5015397;28;20029;-61
2022/01/29 12:16:55;;;;;;;4.47;2.45;;;16.80;58.40;;;;;;5022412;28;20040;-59
2022/01/29 12:19:40;;;;;;;4.82;2.42;;;16.80;58.40;;;;;;5013726;28;20080;-62
2022/01/29 12:22:19;;;;;;;6.25;2.70;;;16.70;58.40;;;;;;5013020;28;20041;-59
2022/01/29 12:24:51;;;;;;;4.95;2.75;;;16.70;58.30;;;;;;4999702;28;20089;-67
2022/01/29 12:27:17;;;;;;;8.60;3.47;;;16.70;58.30;;;;;;5004676;28;20036;-60
2022/01/29 12:29:43;;;;;;;8.90;4.15;;;16.70;58.20;;;;;;5011955;28;20226;-59
2022/01/29 12:32:09;;;;;;;9.00;4.78;;;16.70;58.10;;;;;;5013575;28;20134;-61
2022/01/29 12:34:35;;;;;;;10.20;5.82;;;16.70;58.10;;;;;;5015819;28;20038;-60
2022/01/29 12:37:13;;;;;;;54.28;30.23;;;16.70;58.00;;;;;;5008112;28;20045;-60
2022/01/29 12:39:43;;;;;;;58.28;33.72;;;16.70;57.90;;;;;;5013416;28;20033;-60
2022/01/29 12:44:40;;;;;;;154.73;85.90;;;16.70;57.80;;;;;;5015546;28;20033;-59
2022/01/29 12:47:06;;;;;;;206.20;114.07;;;16.70;58.10;;;;;;5018215;28;20041;-61
2022/01/29 12:49:44;;;;;;;210.00;121.43;;;16.70;58.20;;;;;;5014743;28;20033;-61
2022/01/29 12:52:14;;;;;;;197.98;115.85;;;16.70;58.20;;;;;;5008855;28;20343;-59
2022/01/29 12:54:39;;;;;;;211.48;127.20;;;16.80;58.10;;;;;;5020868;28;20395;-60
2022/01/29 12:57:05;;;;;;;195.40;117.38;;;16.80;58.20;;;;;;5015062;28;20034;-60
2022/01/29 12:59:33;;;;;;;174.13;104.15;;;16.80;58.00;;;;;;5009072;28;20034;-59